sensor_id;sensor_type;location;lat;lon;timestamp;P1;durP1;ratioP1;P2;durP2;ratioP2
61572;SDS011;47465;43.094;12.434;2023-04-03T00:00:42;5.35;;;3.17;;
61572;SDS011;47465;43.094;12.434;2023-04-03T00:03:08;7.57;;;2.83;;
61572;SDS011;47465;43.094;12.434;2023-04-03T00:05:33;5.65;;;2.80;;
61572;SDS011;47465;43.094;12.434;2023-04-03T00:08:01;7.82;;;3.30;;
61572;SDS011;47465;43.094;12.434;2023-04-03T00:10:27;6.07;;;2.70;;
61572;SDS011;47465;43.094;12.434;2023-04-03T00:12:53;6.85;;;3.03;;
61572;SDS011;47465;43.094;12.434;2023-04-03T00:15:19;5.70;;;3.05;;
61572;SDS011;47465;43.094;12.434;2023-04-03T00:17:45;9.88;;;3.10;;
61572;SDS011;47465;43.094;12.434;2023-04-03T00:20:11;5.20;;;2.85;;
61572;SDS011;47465;43.094;12.434;2023-04-03T00:22:37;6.30;;;2.90;;
61572;SDS011;47465;43.094;12.434;2023-04-03T00:25:05;4.38;;;2.63;;
61572;SDS011;47465;43.094;12.434;2023-04-03T00:27:31;4.35;;;3.03;;
61572;SDS011;47465;43.094;12.434;2023-04-03T00:29:57;7.00;;;3.08;;
61572;SDS011;47465;43.094;12.434;2023-04-03T00:32:23;4.38;;;2.75;;
61572;SDS011;47465;43.094;12.434;2023-04-03T00:34:49;5.63;;;2.80;;
61572;SDS011;47465;43.094;12.434;2023-04-03T00:37:15;7.30;;;2.88;;
61572;SDS011;47465;43.094;12.434;2023-04-03T00:39:41;5.20;;;2.92;;
61572;SDS011;47465;43.094;12.434;2023-04-03T00:42:08;5.65;;;2.88;;
61572;SDS011;47465;43.094;12.434;2023-04-03T00:47:37;4.60;;;3.00;;
61572;SDS011;47465;43.094;12.434;2023-04-03T00:50:04;6.90;;;3.20;;
61572;SDS011;47465;43.094;12.434;2023-04-03T00:52:31;5.15;;;2.90;;
61572;SDS011;47465;43.094;12.434;2023-04-03T00:54:58;6.30;;;3.17;;
61572;SDS011;47465;43.094;12.434;2023-04-03T00:59:56;6.60;;;2.75;;
61572;SDS011;47465;43.094;12.434;2023-04-03T01:02:26;8.65;;;3.63;;
61572;SDS011;47465;43.094;12.434;2023-04-03T01:04:52;8.15;;;3.72;;
61572;SDS011;47465;43.094;12.434;2023-04-03T01:07:19;6.90;;;3.50;;
61572;SDS011;47465;43.094;12.434;2023-04-03T01:09:48;5.03;;;3.15;;
61572;SDS011;47465;43.094;12.434;2023-04-03T01:12:19;5.03;;;3.50;;
61572;SDS011;47465;43.094;12.434;2023-04-03T01:14:49;6.93;;;3.58;;
61572;SDS011;47465;43.094;12.434;2023-04-03T01:17:29;6.70;;;3.70;;
61572;SDS011;47465;43.094;12.434;2023-04-03T01:20:01;8.23;;;4.03;;
61572;SDS011;47465;43.094;12.434;2023-04-03T01:22:44;6.97;;;3.95;;
61572;SDS011;47465;43.094;12.434;2023-04-03T01:25:21;6.65;;;4.50;;
61572;SDS011;47465;43.094;12.434;2023-04-03T01:27:47;8.68;;;4.45;;
61572;SDS011;47465;43.094;12.434;2023-04-03T01:30:16;8.25;;;4.32;;
61572;SDS011;47465;43.094;12.434;2023-04-03T01:32:46;7.25;;;3.80;;
61572;SDS011;47465;43.094;12.434;2023-04-03T01:35:12;8.25;;;4.00;;
61572;SDS011;47465;43.094;12.434;2023-04-03T01:37:38;6.47;;;3.80;;
61572;SDS011;47465;43.094;12.434;2023-04-03T01:40:04;7.13;;;3.80;;
61572;SDS011;47465;43.094;12.434;2023-04-03T01:42:32;6.30;;;3.58;;
61572;SDS011;47465;43.094;12.434;2023-04-03T01:44:57;5.97;;;3.40;;
61572;SDS011;47465;43.094;12.434;2023-04-03T01:47:23;6.22;;;3.53;;
61572;SDS011;47465;43.094;12.434;2023-04-03T01:49:51;7.05;;;3.55;;
61572;SDS011;47465;43.094;12.434;2023-04-03T01:52:16;7.45;;;3.70;;
61572;SDS011;47465;43.094;12.434;2023-04-03T01:54:42;5.95;;;3.70;;
61572;SDS011;47465;43.094;12.434;2023-04-03T01:57:08;8.55;;;3.60;;
61572;SDS011;47465;43.094;12.434;2023-04-03T01:59:34;7.78;;;3.05;;
61572;SDS011;47465;43.094;12.434;2023-04-03T02:02:00;6.18;;;3.03;;
61572;SDS011;47465;43.094;12.434;2023-04-03T02:04:26;4.95;;;2.90;;
61572;SDS011;47465;43.094;12.434;2023-04-03T02:06:53;6.45;;;3.65;;
61572;SDS011;47465;43.094;12.434;2023-04-03T02:09:19;4.25;;;3.10;;
61572;SDS011;47465;43.094;12.434;2023-04-03T02:11:44;4.78;;;3.08;;
61572;SDS011;47465;43.094;12.434;2023-04-03T02:14:10;4.50;;;2.92;;
61572;SDS011;47465;43.094;12.434;2023-04-03T02:16:38;5.45;;;3.10;;
61572;SDS011;47465;43.094;12.434;2023-04-03T02:19:05;4.53;;;2.80;;
61572;SDS011;47465;43.094;12.434;2023-04-03T02:21:31;5.22;;;2.80;;
61572;SDS011;47465;43.094;12.434;2023-04-03T02:23:59;4.70;;;2.72;;
61572;SDS011;47465;43.094;12.434;2023-04-03T02:26:24;5.60;;;2.75;;
61572;SDS011;47465;43.094;12.434;2023-04-03T02:28:51;3.42;;;2.50;;
61572;SDS011;47465;43.094;12.434;2023-04-03T02:31:17;4.88;;;2.88;;
61572;SDS011;47465;43.094;12.434;2023-04-03T02:33:43;5.15;;;2.78;;
61572;SDS011;47465;43.094;12.434;2023-04-03T02:36:09;4.45;;;2.80;;
61572;SDS011;47465;43.094;12.434;2023-04-03T02:38:35;4.43;;;2.78;;
61572;SDS011;47465;43.094;12.434;2023-04-03T02:41:03;3.72;;;2.47;;
61572;SDS011;47465;43.094;12.434;2023-04-03T02:43:30;4.75;;;2.70;;
61572;SDS011;47465;43.094;12.434;2023-04-03T02:45:55;4.80;;;2.60;;
61572;SDS011;47465;43.094;12.434;2023-04-03T02:48:21;4.28;;;2.60;;
61572;SDS011;47465;43.094;12.434;2023-04-03T02:50:48;4.25;;;2.80;;
61572;SDS011;47465;43.094;12.434;2023-04-03T02:53:14;5.38;;;2.80;;
61572;SDS011;47465;43.094;12.434;2023-04-03T02:55:40;4.53;;;2.83;;
61572;SDS011;47465;43.094;12.434;2023-04-03T02:58:07;9.07;;;3.10;;
61572;SDS011;47465;43.094;12.434;2023-04-03T03:00:34;5.78;;;3.05;;
61572;SDS011;47465;43.094;12.434;2023-04-03T03:03:00;4.32;;;2.70;;
61572;SDS011;47465;43.094;12.434;2023-04-03T03:05:26;4.45;;;2.90;;
61572;SDS011;47465;43.094;12.434;2023-04-03T03:07:52;4.25;;;2.80;;
61572;SDS011;47465;43.094;12.434;2023-04-03T03:10:18;3.78;;;2.53;;
61572;SDS011;47465;43.094;12.434;2023-04-03T03:12:44;6.65;;;3.03;;
61572;SDS011;47465;43.094;12.434;2023-04-03T03:15:12;4.47;;;2.40;;
61572;SDS011;47465;43.094;12.434;2023-04-03T03:17:38;4.88;;;2.80;;
61572;SDS011;47465;43.094;12.434;2023-04-03T03:20:04;4.00;;;2.63;;
61572;SDS011;47465;43.094;12.434;2023-04-03T03:22:31;4.20;;;2.70;;
61572;SDS011;47465;43.094;12.434;2023-04-03T03:24:57;6.20;;;3.40;;
61572;SDS011;47465;43.094;12.434;2023-04-03T03:27:23;5.43;;;2.90;;
61572;SDS011;47465;43.094;12.434;2023-04-03T03:29:49;4.93;;;3.00;;
61572;SDS011;47465;43.094;12.434;2023-04-03T03:32:17;5.25;;;3.17;;
61572;SDS011;47465;43.094;12.434;2023-04-03T03:34:43;4.15;;;3.08;;
61572;SDS011;47465;43.094;12.434;2023-04-03T03:37:08;4.22;;;2.95;;
61572;SDS011;47465;43.094;12.434;2023-04-03T03:39:34;5.57;;;3.20;;
61572;SDS011;47465;43.094;12.434;2023-04-03T03:42:00;4.55;;;2.83;;
61572;SDS011;47465;43.094;12.434;2023-04-03T03:44:26;5.15;;;3.03;;
61572;SDS011;47465;43.094;12.434;2023-04-03T03:46:54;4.55;;;3.10;;
61572;SDS011;47465;43.094;12.434;2023-04-03T03:49:22;4.40;;;2.92;;
61572;SDS011;47465;43.094;12.434;2023-04-03T03:51:48;3.95;;;2.92;;
61572;SDS011;47465;43.094;12.434;2023-04-03T03:54:15;5.63;;;3.20;;
61572;SDS011;47465;43.094;12.434;2023-04-03T03:56:41;5.50;;;3.10;;
61572;SDS011;47465;43.094;12.434;2023-04-03T03:59:07;4.97;;;3.15;;
61572;SDS011;47465;43.094;12.434;2023-04-03T04:01:33;5.65;;;3.20;;
61572;SDS011;47465;43.094;12.434;2023-04-03T04:03:59;6.28;;;2.85;;
61572;SDS011;47465;43.094;12.434;2023-04-03T04:06:26;4.40;;;3.13;;
61572;SDS011;47465;43.094;12.434;2023-04-03T04:08:52;4.68;;;3.50;;
61572;SDS011;47465;43.094;12.434;2023-04-03T04:11:19;4.72;;;3.20;;
61572;SDS011;47465;43.094;12.434;2023-04-03T04:13:45;4.40;;;3.08;;
61572;SDS011;47465;43.094;12.434;2023-04-03T04:16:11;4.70;;;3.03;;
61572;SDS011;47465;43.094;12.434;2023-04-03T04:18:37;5.28;;;2.95;;
61572;SDS011;47465;43.094;12.434;2023-04-03T04:21:03;6.07;;;2.83;;
61572;SDS011;47465;43.094;12.434;2023-04-03T04:23:30;4.57;;;2.88;;
61572;SDS011;47465;43.094;12.434;2023-04-03T04:25:56;5.05;;;2.50;;
61572;SDS011;47465;43.094;12.434;2023-04-03T04:28:22;3.70;;;2.30;;
61572;SDS011;47465;43.094;12.434;2023-04-03T04:30:48;3.85;;;2.40;;
61572;SDS011;47465;43.094;12.434;2023-04-03T04:33:14;2.42;;;2.00;;
61572;SDS011;47465;43.094;12.434;2023-04-03T04:35:41;3.67;;;2.40;;
61572;SDS011;47465;43.094;12.434;2023-04-03T04:38:07;5.65;;;2.08;;
61572;SDS011;47465;43.094;12.434;2023-04-03T04:40:35;2.95;;;1.70;;
61572;SDS011;47465;43.094;12.434;2023-04-03T04:43:02;2.88;;;1.65;;
61572;SDS011;47465;43.094;12.434;2023-04-03T04:45:28;3.00;;;1.73;;
61572;SDS011;47465;43.094;12.434;2023-04-03T04:47:54;2.40;;;1.70;;
61572;SDS011;47465;43.094;12.434;2023-04-03T04:50:20;3.33;;;1.75;;
61572;SDS011;47465;43.094;12.434;2023-04-03T04:52:46;3.90;;;2.20;;
61572;SDS011;47465;43.094;12.434;2023-04-03T04:55:12;3.75;;;1.80;;
61572;SDS011;47465;43.094;12.434;2023-04-03T04:57:39;2.63;;;1.67;;
61572;SDS011;47465;43.094;12.434;2023-04-03T05:00:06;2.80;;;1.58;;
61572;SDS011;47465;43.094;12.434;2023-04-03T05:02:32;4.82;;;1.80;;
61572;SDS011;47465;43.094;12.434;2023-04-03T05:04:58;3.90;;;1.65;;
61572;SDS011;47465;43.094;12.434;2023-04-03T05:07:24;3.95;;;1.40;;
61572;SDS011;47465;43.094;12.434;2023-04-03T05:09:50;4.65;;;1.48;;
61572;SDS011;47465;43.094;12.434;2023-04-03T05:12:16;2.70;;;1.38;;
61572;SDS011;47465;43.094;12.434;2023-04-03T05:14:43;1.92;;;1.35;;
61572;SDS011;47465;43.094;12.434;2023-04-03T05:17:09;6.55;;;1.65;;
61572;SDS011;47465;43.094;12.434;2023-04-03T05:19:35;2.63;;;1.60;;
61572;SDS011;47465;43.094;12.434;2023-04-03T05:22:01;3.97;;;1.67;;
61572;SDS011;47465;43.094;12.434;2023-04-03T05:24:27;6.20;;;1.63;;
61572;SDS011;47465;43.094;12.434;2023-04-03T05:26:53;5.05;;;1.67;;
61572;SDS011;47465;43.094;12.434;2023-04-03T05:29:19;4.50;;;1.70;;
61572;SDS011;47465;43.094;12.434;2023-04-03T05:31:47;3.97;;;1.77;;
61572;SDS011;47465;43.094;12.434;2023-04-03T05:34:14;5.20;;;1.50;;
61572;SDS011;47465;43.094;12.434;2023-04-03T05:36:40;3.45;;;1.60;;
61572;SDS011;47465;43.094;12.434;2023-04-03T05:39:06;4.18;;;1.50;;
61572;SDS011;47465;43.094;12.434;2023-04-03T05:41:32;2.95;;;1.35;;
61572;SDS011;47465;43.094;12.434;2023-04-03T05:43:58;2.85;;;1.40;;
61572;SDS011;47465;43.094;12.434;2023-04-03T05:46:24;4.97;;;1.70;;
61572;SDS011;47465;43.094;12.434;2023-04-03T05:48:51;5.05;;;1.80;;
61572;SDS011;47465;43.094;12.434;2023-04-03T05:51:18;2.95;;;1.58;;
61572;SDS011;47465;43.094;12.434;2023-04-03T05:53:45;3.55;;;1.60;;
61572;SDS011;47465;43.094;12.434;2023-04-03T05:56:13;3.97;;;1.67;;
61572;SDS011;47465;43.094;12.434;2023-04-03T05:58:39;3.97;;;1.60;;
61572;SDS011;47465;43.094;12.434;2023-04-03T06:01:05;2.60;;;1.55;;
61572;SDS011;47465;43.094;12.434;2023-04-03T06:03:31;3.03;;;1.50;;
61572;SDS011;47465;43.094;12.434;2023-04-03T06:05:58;2.25;;;1.50;;
61572;SDS011;47465;43.094;12.434;2023-04-03T06:08:24;4.82;;;1.85;;
61572;SDS011;47465;43.094;12.434;2023-04-03T06:10:50;6.53;;;1.70;;
61572;SDS011;47465;43.094;12.434;2023-04-03T06:13:16;5.32;;;2.17;;
61572;SDS011;47465;43.094;12.434;2023-04-03T06:15:42;2.50;;;1.60;;
61572;SDS011;47465;43.094;12.434;2023-04-03T06:18:08;9.07;;;1.95;;
61572;SDS011;47465;43.094;12.434;2023-04-03T06:20:34;3.53;;;1.55;;
61572;SDS011;47465;43.094;12.434;2023-04-03T06:23:02;3.63;;;1.80;;
61572;SDS011;47465;43.094;12.434;2023-04-03T06:25:27;4.63;;;1.70;;
61572;SDS011;47465;43.094;12.434;2023-04-03T06:27:53;2.92;;;1.60;;
61572;SDS011;47465;43.094;12.434;2023-04-03T06:30:20;5.00;;;1.92;;
61572;SDS011;47465;43.094;12.434;2023-04-03T06:32:47;4.72;;;1.65;;
61572;SDS011;47465;43.094;12.434;2023-04-03T06:35:12;6.88;;;2.00;;
61572;SDS011;47465;43.094;12.434;2023-04-03T06:37:38;5.50;;;1.75;;
61572;SDS011;47465;43.094;12.434;2023-04-03T06:40:07;7.15;;;1.83;;
61572;SDS011;47465;43.094;12.434;2023-04-03T06:42:40;6.47;;;2.05;;
61572;SDS011;47465;43.094;12.434;2023-04-03T06:45:06;3.50;;;1.70;;
61572;SDS011;47465;43.094;12.434;2023-04-03T06:47:33;3.80;;;1.70;;
61572;SDS011;47465;43.094;12.434;2023-04-03T06:49:58;4.97;;;1.88;;
61572;SDS011;47465;43.094;12.434;2023-04-03T06:52:25;3.78;;;1.95;;
61572;SDS011;47465;43.094;12.434;2023-04-03T06:54:51;4.63;;;1.92;;
61572;SDS011;47465;43.094;12.434;2023-04-03T06:57:23;4.25;;;2.00;;
61572;SDS011;47465;43.094;12.434;2023-04-03T06:59:49;2.25;;;1.60;;
61572;SDS011;47465;43.094;12.434;2023-04-03T07:02:15;3.83;;;1.90;;
61572;SDS011;47465;43.094;12.434;2023-04-03T07:04:41;3.92;;;1.63;;
61572;SDS011;47465;43.094;12.434;2023-04-03T07:07:07;4.25;;;1.60;;
61572;SDS011;47465;43.094;12.434;2023-04-03T07:09:33;4.22;;;2.05;;
61572;SDS011;47465;43.094;12.434;2023-04-03T07:11:59;4.07;;;1.90;;
61572;SDS011;47465;43.094;12.434;2023-04-03T07:14:26;5.82;;;1.75;;
61572;SDS011;47465;43.094;12.434;2023-04-03T07:16:52;5.88;;;1.80;;
61572;SDS011;47465;43.094;12.434;2023-04-03T07:19:18;6.20;;;1.73;;
61572;SDS011;47465;43.094;12.434;2023-04-03T07:21:44;4.00;;;2.13;;
61572;SDS011;47465;43.094;12.434;2023-04-03T07:24:10;3.53;;;1.48;;
61572;SDS011;47465;43.094;12.434;2023-04-03T07:26:36;4.72;;;1.90;;
61572;SDS011;47465;43.094;12.434;2023-04-03T07:29:02;3.70;;;1.90;;
61572;SDS011;47465;43.094;12.434;2023-04-03T07:31:29;4.57;;;1.73;;
61572;SDS011;47465;43.094;12.434;2023-04-03T07:33:55;4.38;;;2.13;;
61572;SDS011;47465;43.094;12.434;2023-04-03T07:36:21;5.63;;;1.90;;
61572;SDS011;47465;43.094;12.434;2023-04-03T07:38:48;10.32;;;2.20;;
61572;SDS011;47465;43.094;12.434;2023-04-03T07:41:15;6.53;;;1.80;;
61572;SDS011;47465;43.094;12.434;2023-04-03T07:43:42;3.83;;;2.10;;
61572;SDS011;47465;43.094;12.434;2023-04-03T07:46:08;6.78;;;2.08;;
61572;SDS011;47465;43.094;12.434;2023-04-03T07:48:36;4.45;;;1.90;;
61572;SDS011;47465;43.094;12.434;2023-04-03T07:51:02;3.65;;;1.63;;
61572;SDS011;47465;43.094;12.434;2023-04-03T07:53:29;4.90;;;1.73;;
61572;SDS011;47465;43.094;12.434;2023-04-03T07:55:56;6.32;;;2.10;;
61572;SDS011;47465;43.094;12.434;2023-04-03T07:58:22;5.35;;;1.95;;
61572;SDS011;47465;43.094;12.434;2023-04-03T08:00:48;4.95;;;1.80;;
61572;SDS011;47465;43.094;12.434;2023-04-03T08:03:15;5.88;;;1.98;;
61572;SDS011;47465;43.094;12.434;2023-04-03T08:05:44;3.80;;;2.22;;
61572;SDS011;47465;43.094;12.434;2023-04-03T08:08:13;8.50;;;2.55;;
61572;SDS011;47465;43.094;12.434;2023-04-03T08:10:40;4.13;;;2.30;;
61572;SDS011;47465;43.094;12.434;2023-04-03T08:13:07;5.78;;;2.40;;
61572;SDS011;47465;43.094;12.434;2023-04-03T08:15:33;4.75;;;2.33;;
61572;SDS011;47465;43.094;12.434;2023-04-03T08:18:00;5.10;;;2.08;;
61572;SDS011;47465;43.094;12.434;2023-04-03T08:20:26;7.63;;;2.10;;
61572;SDS011;47465;43.094;12.434;2023-04-03T08:22:54;7.75;;;2.65;;
61572;SDS011;47465;43.094;12.434;2023-04-03T08:25:20;6.35;;;2.72;;
61572;SDS011;47465;43.094;12.434;2023-04-03T08:27:46;6.15;;;2.53;;
61572;SDS011;47465;43.094;12.434;2023-04-03T08:30:12;4.18;;;2.15;;
61572;SDS011;47465;43.094;12.434;2023-04-03T08:32:39;7.55;;;2.45;;
61572;SDS011;47465;43.094;12.434;2023-04-03T08:35:07;5.80;;;2.38;;
61572;SDS011;47465;43.094;12.434;2023-04-03T08:37:34;6.25;;;2.67;;
61572;SDS011;47465;43.094;12.434;2023-04-03T08:40:03;5.93;;;2.58;;
61572;SDS011;47465;43.094;12.434;2023-04-03T08:42:35;9.25;;;2.88;;
61572;SDS011;47465;43.094;12.434;2023-04-03T08:45:08;10.88;;;2.38;;
61572;SDS011;47465;43.094;12.434;2023-04-03T08:47:38;4.50;;;2.20;;
61572;SDS011;47465;43.094;12.434;2023-04-03T08:50:11;6.72;;;2.90;;
61572;SDS011;47465;43.094;12.434;2023-04-03T08:52:39;7.00;;;2.50;;
61572;SDS011;47465;43.094;12.434;2023-04-03T08:55:13;17.70;;;4.03;;
61572;SDS011;47465;43.094;12.434;2023-04-03T08:57:46;9.02;;;2.60;;
61572;SDS011;47465;43.094;12.434;2023-04-03T09:00:16;7.95;;;2.35;;
61572;SDS011;47465;43.094;12.434;2023-04-03T09:02:45;5.55;;;2.13;;
61572;SDS011;47465;43.094;12.434;2023-04-03T09:05:12;7.47;;;3.13;;
61572;SDS011;47465;43.094;12.434;2023-04-03T09:07:43;8.35;;;2.75;;
61572;SDS011;47465;43.094;12.434;2023-04-03T09:10:23;6.55;;;2.63;;
61572;SDS011;47465;43.094;12.434;2023-04-03T09:12:57;6.05;;;2.55;;
61572;SDS011;47465;43.094;12.434;2023-04-03T09:15:28;5.65;;;2.40;;
61572;SDS011;47465;43.094;12.434;2023-04-03T09:17:58;6.70;;;2.50;;
61572;SDS011;47465;43.094;12.434;2023-04-03T09:20:30;6.55;;;2.40;;
61572;SDS011;47465;43.094;12.434;2023-04-03T09:23:09;5.97;;;2.92;;
61572;SDS011;47465;43.094;12.434;2023-04-03T09:25:43;7.07;;;2.50;;
61572;SDS011;47465;43.094;12.434;2023-04-03T09:28:10;7.60;;;2.40;;
61572;SDS011;47465;43.094;12.434;2023-04-03T09:30:37;7.20;;;2.35;;
61572;SDS011;47465;43.094;12.434;2023-04-03T09:33:03;5.43;;;2.40;;
61572;SDS011;47465;43.094;12.434;2023-04-03T09:35:31;5.20;;;2.53;;
61572;SDS011;47465;43.094;12.434;2023-04-03T09:37:59;6.85;;;2.45;;
61572;SDS011;47465;43.094;12.434;2023-04-03T09:40:33;4.87;;;2.40;;
61572;SDS011;47465;43.094;12.434;2023-04-03T09:45:46;3.75;;;2.08;;
61572;SDS011;47465;43.094;12.434;2023-04-03T09:48:15;6.80;;;2.22;;
61572;SDS011;47465;43.094;12.434;2023-04-03T09:50:52;8.82;;;2.60;;
61572;SDS011;47465;43.094;12.434;2023-04-03T09:53:26;5.20;;;2.40;;
61572;SDS011;47465;43.094;12.434;2023-04-03T09:55:58;3.72;;;2.28;;
61572;SDS011;47465;43.094;12.434;2023-04-03T09:58:27;7.88;;;2.38;;
61572;SDS011;47465;43.094;12.434;2023-04-03T10:00:55;7.97;;;2.58;;
61572;SDS011;47465;43.094;12.434;2023-04-03T10:03:24;7.07;;;2.72;;
61572;SDS011;47465;43.094;12.434;2023-04-03T10:05:52;7.35;;;2.38;;
61572;SDS011;47465;43.094;12.434;2023-04-03T10:08:21;5.85;;;2.35;;
61572;SDS011;47465;43.094;12.434;2023-04-03T10:13:34;5.90;;;2.45;;
61572;SDS011;47465;43.094;12.434;2023-04-03T10:16:01;9.73;;;2.65;;
61572;SDS011;47465;43.094;12.434;2023-04-03T10:18:32;4.38;;;2.20;;
61572;SDS011;47465;43.094;12.434;2023-04-03T10:21:09;5.05;;;2.40;;
61572;SDS011;47465;43.094;12.434;2023-04-03T10:23:42;9.65;;;2.53;;
61572;SDS011;47465;43.094;12.434;2023-04-03T10:26:14;5.85;;;2.50;;
61572;SDS011;47465;43.094;12.434;2023-04-03T10:28:47;6.57;;;3.05;;
61572;SDS011;47465;43.094;12.434;2023-04-03T10:31:19;5.30;;;2.45;;
61572;SDS011;47465;43.094;12.434;2023-04-03T10:33:53;7.93;;;2.40;;
61572;SDS011;47465;43.094;12.434;2023-04-03T10:36:28;7.95;;;2.50;;
61572;SDS011;47465;43.094;12.434;2023-04-03T10:39:04;9.15;;;2.55;;
61572;SDS011;47465;43.094;12.434;2023-04-03T10:41:46;7.03;;;2.67;;
61572;SDS011;47465;43.094;12.434;2023-04-03T10:44:24;10.48;;;2.65;;
61572;SDS011;47465;43.094;12.434;2023-04-03T10:47:02;6.55;;;2.42;;
61572;SDS011;47465;43.094;12.434;2023-04-03T10:49:41;6.65;;;2.42;;
61572;SDS011;47465;43.094;12.434;2023-04-03T10:52:17;5.35;;;2.00;;
61572;SDS011;47465;43.094;12.434;2023-04-03T10:54:49;5.28;;;2.10;;
61572;SDS011;47465;43.094;12.434;2023-04-03T10:57:24;9.43;;;2.20;;
61572;SDS011;47465;43.094;12.434;2023-04-03T10:59:53;6.38;;;2.22;;
61572;SDS011;47465;43.094;12.434;2023-04-03T11:02:23;7.22;;;2.30;;
61572;SDS011;47465;43.094;12.434;2023-04-03T11:04:53;5.65;;;2.33;;
61572;SDS011;47465;43.094;12.434;2023-04-03T11:07:25;6.43;;;2.40;;
61572;SDS011;47465;43.094;12.434;2023-04-03T11:09:54;7.50;;;2.40;;
61572;SDS011;47465;43.094;12.434;2023-04-03T11:12:25;5.78;;;2.20;;
61572;SDS011;47465;43.094;12.434;2023-04-03T11:14:59;6.93;;;2.28;;
61572;SDS011;47465;43.094;12.434;2023-04-03T11:17:30;8.68;;;2.35;;
61572;SDS011;47465;43.094;12.434;2023-04-03T11:20:04;9.27;;;2.40;;
61572;SDS011;47465;43.094;12.434;2023-04-03T11:22:41;6.13;;;2.30;;
61572;SDS011;47465;43.094;12.434;2023-04-03T11:25:14;5.15;;;1.92;;
61572;SDS011;47465;43.094;12.434;2023-04-03T11:27:51;4.32;;;2.20;;
61572;SDS011;47465;43.094;12.434;2023-04-03T11:30:23;7.68;;;2.47;;
61572;SDS011;47465;43.094;12.434;2023-04-03T11:32:58;5.50;;;2.35;;
61572;SDS011;47465;43.094;12.434;2023-04-03T11:35:37;7.95;;;2.10;;
61572;SDS011;47465;43.094;12.434;2023-04-03T11:38:10;4.28;;;2.13;;
61572;SDS011;47465;43.094;12.434;2023-04-03T11:40:43;6.35;;;2.20;;
61572;SDS011;47465;43.094;12.434;2023-04-03T11:43:20;5.97;;;2.65;;
61572;SDS011;47465;43.094;12.434;2023-04-03T11:45:54;9.57;;;2.47;;
61572;SDS011;47465;43.094;12.434;2023-04-03T11:48:47;6.10;;;2.60;;
61572;SDS011;47465;43.094;12.434;2023-04-03T12:12:40;5.63;;;2.05;;
61572;SDS011;47465;43.094;12.434;2023-04-03T12:15:19;8.90;;;2.63;;
61572;SDS011;47465;43.094;12.434;2023-04-03T12:17:51;6.63;;;1.88;;
61572;SDS011;47465;43.094;12.434;2023-04-03T12:23:24;3.72;;;2.00;;
61572;SDS011;47465;43.094;12.434;2023-04-03T12:26:02;8.48;;;2.60;;
61572;SDS011;47465;43.094;12.434;2023-04-03T12:28:34;6.05;;;2.30;;
61572;SDS011;47465;43.094;12.434;2023-04-03T12:31:03;5.07;;;1.92;;
61572;SDS011;47465;43.094;12.434;2023-04-03T12:33:33;5.38;;;2.03;;
61572;SDS011;47465;43.094;12.434;2023-04-03T12:36:11;8.60;;;2.50;;
61572;SDS011;47465;43.094;12.434;2023-04-03T12:41:46;6.45;;;2.78;;
61572;SDS011;47465;43.094;12.434;2023-04-03T12:44:26;7.78;;;2.78;;
61572;SDS011;47465;43.094;12.434;2023-04-03T12:47:06;8.00;;;2.80;;
61572;SDS011;47465;43.094;12.434;2023-04-03T12:49:45;8.20;;;2.70;;
61572;SDS011;47465;43.094;12.434;2023-04-03T12:52:17;8.85;;;2.75;;
61572;SDS011;47465;43.094;12.434;2023-04-03T12:54:47;4.75;;;2.42;;
61572;SDS011;47465;43.094;12.434;2023-04-03T12:57:18;6.50;;;2.80;;
61572;SDS011;47465;43.094;12.434;2023-04-03T12:59:45;7.63;;;2.67;;
61572;SDS011;47465;43.094;12.434;2023-04-03T13:02:22;9.63;;;3.10;;
61572;SDS011;47465;43.094;12.434;2023-04-03T13:04:49;5.85;;;2.42;;
61572;SDS011;47465;43.094;12.434;2023-04-03T13:07:21;8.73;;;2.97;;
61572;SDS011;47465;43.094;12.434;2023-04-03T13:09:57;7.68;;;2.67;;
61572;SDS011;47465;43.094;12.434;2023-04-03T13:12:26;6.30;;;2.67;;
61572;SDS011;47465;43.094;12.434;2023-04-03T13:14:53;6.10;;;2.13;;
61572;SDS011;47465;43.094;12.434;2023-04-03T13:17:21;8.55;;;2.38;;
61572;SDS011;47465;43.094;12.434;2023-04-03T13:19:48;5.63;;;2.10;;
61572;SDS011;47465;43.094;12.434;2023-04-03T13:22:24;6.28;;;2.17;;
61572;SDS011;47465;43.094;12.434;2023-04-03T13:24:54;5.17;;;2.23;;
61572;SDS011;47465;43.094;12.434;2023-04-03T13:27:26;6.40;;;2.13;;
61572;SDS011;47465;43.094;12.434;2023-04-03T13:29:54;9.27;;;2.60;;
61572;SDS011;47465;43.094;12.434;2023-04-03T13:34:49;7.93;;;2.92;;
61572;SDS011;47465;43.094;12.434;2023-04-03T13:37:19;8.30;;;2.90;;
61572;SDS011;47465;43.094;12.434;2023-04-03T13:39:56;6.22;;;2.40;;
61572;SDS011;47465;43.094;12.434;2023-04-03T13:42:23;6.60;;;2.70;;
61572;SDS011;47465;43.094;12.434;2023-04-03T13:47:42;9.27;;;2.60;;
61572;SDS011;47465;43.094;12.434;2023-04-03T13:50:15;5.65;;;2.53;;
61572;SDS011;47465;43.094;12.434;2023-04-03T13:52:43;12.05;;;3.33;;
61572;SDS011;47465;43.094;12.434;2023-04-03T13:55:16;7.53;;;2.97;;
61572;SDS011;47465;43.094;12.434;2023-04-03T13:57:50;6.72;;;2.70;;
61572;SDS011;47465;43.094;12.434;2023-04-03T14:00:28;6.88;;;2.75;;
61572;SDS011;47465;43.094;12.434;2023-04-03T14:02:57;9.27;;;2.15;;
61572;SDS011;47465;43.094;12.434;2023-04-03T14:05:23;4.85;;;2.03;;
61572;SDS011;47465;43.094;12.434;2023-04-03T14:07:50;8.82;;;2.28;;
61572;SDS011;47465;43.094;12.434;2023-04-03T14:10:16;5.15;;;2.55;;
61572;SDS011;47465;43.094;12.434;2023-04-03T14:12:42;9.15;;;2.85;;
61572;SDS011;47465;43.094;12.434;2023-04-03T14:15:15;8.45;;;3.13;;
61572;SDS011;47465;43.094;12.434;2023-04-03T14:17:45;8.57;;;2.60;;
61572;SDS011;47465;43.094;12.434;2023-04-03T14:20:14;9.13;;;2.70;;
61572;SDS011;47465;43.094;12.434;2023-04-03T14:22:41;10.80;;;2.90;;
61572;SDS011;47465;43.094;12.434;2023-04-03T14:25:07;8.73;;;2.50;;
61572;SDS011;47465;43.094;12.434;2023-04-03T14:27:35;3.78;;;2.33;;
61572;SDS011;47465;43.094;12.434;2023-04-03T14:30:03;5.18;;;2.10;;
61572;SDS011;47465;43.094;12.434;2023-04-03T14:32:34;6.40;;;2.30;;
61572;SDS011;47465;43.094;12.434;2023-04-03T14:35:00;10.18;;;3.42;;
61572;SDS011;47465;43.094;12.434;2023-04-03T14:37:27;10.32;;;2.95;;
61572;SDS011;47465;43.094;12.434;2023-04-03T14:39:55;11.30;;;3.40;;
61572;SDS011;47465;43.094;12.434;2023-04-03T14:42:23;8.18;;;2.67;;
61572;SDS011;47465;43.094;12.434;2023-04-03T14:44:50;5.30;;;2.60;;
61572;SDS011;47465;43.094;12.434;2023-04-03T14:47:18;5.70;;;2.55;;
61572;SDS011;47465;43.094;12.434;2023-04-03T14:49:47;7.75;;;2.90;;
61572;SDS011;47465;43.094;12.434;2023-04-03T14:52:16;6.15;;;2.90;;
61572;SDS011;47465;43.094;12.434;2023-04-03T14:54:44;9.27;;;2.78;;
61572;SDS011;47465;43.094;12.434;2023-04-03T14:57:11;9.23;;;3.70;;
61572;SDS011;47465;43.094;12.434;2023-04-03T14:59:38;9.02;;;3.00;;
61572;SDS011;47465;43.094;12.434;2023-04-03T15:02:09;6.13;;;2.70;;
61572;SDS011;47465;43.094;12.434;2023-04-03T15:04:49;7.70;;;2.70;;
61572;SDS011;47465;43.094;12.434;2023-04-03T15:07:14;5.45;;;2.55;;
61572;SDS011;47465;43.094;12.434;2023-04-03T15:09:41;9.07;;;3.55;;
61572;SDS011;47465;43.094;12.434;2023-04-03T15:12:07;9.57;;;2.85;;
61572;SDS011;47465;43.094;12.434;2023-04-03T15:14:34;7.30;;;2.70;;
61572;SDS011;47465;43.094;12.434;2023-04-03T15:17:00;5.25;;;2.53;;
61572;SDS011;47465;43.094;12.434;2023-04-03T15:19:25;5.35;;;2.47;;
61572;SDS011;47465;43.094;12.434;2023-04-03T15:21:53;7.85;;;2.70;;
61572;SDS011;47465;43.094;12.434;2023-04-03T15:24:19;6.45;;;2.67;;